Terminal Aerodrome Forecast
Issued by NWS

Home | Current Version | Previous Version | Text Only | Print | Product List | Glossary On
Versions: 1 2 3 4 5 6 7 8 9 10 11 12 13 14 15 16 17 18 19 20 21 22 23 24 25 26 27 28 29 30 31
000
FTUS44 KHGX 261907 AAB
TAFSGR
TAF AMD
KSGR 261907Z 2619/2718 18005KT P6SM VCSH SCT018 OVC023
     FM270200 14009KT P6SM VCSH SCT007 OVC015
     FM271000 17005KT 4SM BR VCSH SCT005 BKN025
      TEMPO 2710/2714 2SM -RA BR BKN010=

USA.gov is the U.S. government's official web portal to all federal, state and local government web resources and services.